Time;durP1;ratioP1;P1;durP2;ratioP2;P2;SDS_P1;SDS_P2;PMS_P1;PMS_P2;Temp;Humidity;BMP_temperature;BMP_pressure;BME280_temperature;BME280_humidity;BME280_pressure;Samples;Min_cycle;Max_cycle;Signal;HPM_P1;HPM_P2
2023/09/08 00:01:40;;;;;;;;;;;;;;;30.59;31.67;98971.81;5076405;28;20398;-88
2023/09/08 00:04:07;;;;;;;;;;;;;;;30.81;31.19;98981.13;5094889;28;19916;-88
2023/09/08 00:06:33;;;;;;;;;;;;;;;31.19;30.98;98978.19;5094667;28;19920;-88
2023/09/08 00:08:59;;;;;;;;;;;;;;;31.48;29.71;98972.28;5091388;28;20388;-88
2023/09/08 00:11:25;;;;;;;;;;;;;;;31.69;29.28;98966.56;5094015;28;19930;-88
2023/09/08 00:13:51;;;;;;;;;;;;;;;31.67;30.33;98969.06;5093241;28;20007;-88
2023/09/08 00:16:17;;;;;;;;;;;;;;;31.87;29.89;98966.66;5092652;28;19962;-88
2023/09/08 00:18:43;;;;;;;;;;;;;;;31.94;29.31;98965.56;5092497;28;19920;-88
2023/09/08 00:21:09;;;;;;;;;;;;;;;31.94;29.31;98971.25;5079937;28;19926;-88
2023/09/08 00:23:35;;;;;;;;;;;;;;;32.06;29.10;98965.50;5069420;28;19924;-88
2023/09/08 00:26:01;;;;;;;;;;;;;;;31.97;29.03;98973.97;5092321;28;20016;-88
2023/09/08 00:28:27;;;;;;;;;;;;;;;31.88;29.56;98975.97;5091190;28;19924;-88
2023/09/08 00:30:53;;;;;;;;;;;;;;;31.90;29.50;98977.06;5090725;28;20021;-88
2023/09/08 00:33:19;;;;;;;;;;;;;;;31.91;28.65;98972.19;5090890;28;20397;-88
2023/09/08 00:35:48;;;;;;;;;;;;;;;32.01;28.84;98968.97;5086138;28;20454;-88
2023/09/08 00:38:14;;;;;;;;;;;;;;;31.78;29.61;98960.94;5089375;28;19970;-88
2023/09/08 00:40:40;;;;;;;;;;;;;;;31.78;29.08;98968.66;5093108;28;19928;-88
2023/09/08 00:43:07;;;;;;;;;;;;;;;31.93;28.93;98966.81;5081349;28;19990;-88
2023/09/08 00:45:36;;;;;;;;;;;;;;;32.03;28.91;98965.63;5096724;28;19984;-88
2023/09/08 00:48:02;;;;;;;;;;;;;;;31.99;28.58;98965.00;5092831;28;20014;-89
2023/09/08 00:50:28;;;;;;;;;;;;;;;31.92;28.85;98965.25;5078156;28;20422;-88
2023/09/08 00:52:54;;;;;;;;;;;;;;;32.04;28.91;98962.31;5088477;28;19967;-90
2023/09/08 00:55:20;;;;;;;;;;;;;;;32.03;29.25;98966.44;5090309;28;19920;-90
2023/09/08 00:57:46;;;;;;;;;;;;;;;32.03;28.43;98968.47;5074509;28;20264;-89
2023/09/08 01:00:12;;;;;;;;;;;;;;;31.92;29.35;98963.22;5099058;28;19931;-90
2023/09/08 01:02:38;;;;;;;;;;;;;;;31.96;29.00;98966.72;5073235;28;20305;-88
2023/09/08 01:05:04;;;;;;;;;;;;;;;31.93;29.15;98961.94;5088835;28;20058;-90
2023/09/08 01:07:31;;;;;;;;;;;;;;;31.96;29.32;98957.38;5085452;28;19920;-89
2023/09/08 01:10:02;;;;;;;;;;;;;;;31.96;28.66;98958.19;5070636;28;19916;-89
2023/09/08 01:12:28;;;;;;;;;;;;;;;31.87;29.09;98958.13;5089757;28;19932;-89
2023/09/08 01:14:55;;;;;;;;;;;;;;;31.81;29.75;98957.13;5085068;28;19938;-88
2023/09/08 01:17:21;;;;;;;;;;;;;;;31.87;29.00;98955.28;5085415;28;19920;-88
2023/09/08 01:19:48;;;;;;;;;;;;;;;32.06;28.89;98956.97;5090563;28;20015;-89
2023/09/08 01:22:14;;;;;;;;;;;;;;;31.97;29.00;98953.31;5091513;28;19928;-89
2023/09/08 01:24:46;;;;;;;;;;;;;;;31.94;28.67;98952.16;5091268;28;19929;-87
2023/09/08 01:27:14;;;;;;;;;;;;;;;31.92;28.57;98960.38;5090318;28;20405;-87
2023/09/08 01:29:41;;;;;;;;;;;;;;;31.92;29.61;98956.72;5092684;28;19921;-87
2023/09/08 01:32:08;;;;;;;;;;;;;;;31.53;29.15;98954.66;5090538;28;20376;-86
2023/09/08 01:34:36;;;;;;;;;;;;;;;31.57;29.47;98958.13;5091483;28;19967;-86
2023/09/08 01:37:04;;;;;;;;;;;;;;;31.54;29.77;98961.88;5098460;28;20445;-86
2023/09/08 01:39:30;;;;;;;;;;;;;;;31.00;30.51;98956.59;5087674;28;19923;-86
2023/09/08 01:41:56;;;;;;;;;;;;;;;30.70;30.91;98964.50;5092587;28;20283;-86
2023/09/08 01:44:22;;;;;;;;;;;;;;;30.90;30.34;98964.22;5086540;28;19924;-86
2023/09/08 01:46:48;;;;;;;;;;;;;;;30.86;30.76;98960.72;5091417;28;19966;-86
2023/09/08 01:49:14;;;;;;;;;;;;;;;30.91;29.74;98953.69;5091216;28;19999;-86
2023/09/08 01:51:40;;;;;;;;;;;;;;;30.55;30.90;98966.25;5091476;28;19959;-86
2023/09/08 01:54:06;;;;;;;;;;;;;;;29.89;32.09;98958.72;5092621;28;20003;-86
2023/09/08 01:56:32;;;;;;;;;;;;;;;29.99;31.99;98960.41;5089955;28;20446;-86
2023/09/08 01:58:59;;;;;;;;;;;;;;;29.93;32.18;98962.22;5091996;28;20010;-86
2023/09/08 02:01:25;;;;;;;;;;;;;;;29.94;32.07;98951.69;5092643;28;19924;-86
2023/09/08 02:03:51;;;;;;;;;;;;;;;30.13;32.19;98959.13;5083432;28;19927;-86
2023/09/08 02:06:17;;;;;;;;;;;;;;;30.63;31.34;98963.97;5084308;28;20277;-86
2023/09/08 02:08:43;;;;;;;;;;;;;;;30.91;30.56;98956.53;5092477;28;19916;-86
2023/09/08 02:11:09;;;;;;;;;;;;;;;30.94;30.41;98958.44;5087606;28;20379;-86
2023/09/08 02:13:35;;;;;;;;;;;;;;;31.07;30.36;98956.34;5092731;28;20016;-86
2023/09/08 02:16:01;;;;;;;;;;;;;;;30.65;30.87;98961.47;5092820;28;19927;-86
2023/09/08 02:18:28;;;;;;;;;;;;;;;30.24;30.93;98959.59;5070543;28;20291;-86
2023/09/08 02:20:54;;;;;;;;;;;;;;;29.86;31.79;98948.28;5089353;28;19920;-86
2023/09/08 02:23:20;;;;;;;;;;;;;;;30.20;31.32;98956.06;5094522;28;19954;-86
2023/09/08 02:25:46;;;;;;;;;;;;;;;30.56;30.94;98941.53;5093446;28;20439;-86
2023/09/08 02:28:12;;;;;;;;;;;;;;;30.81;30.75;98949.94;5093048;28;20010;-86
2023/09/08 02:30:38;;;;;;;;;;;;;;;30.64;30.42;98948.56;5093667;28;19956;-86
2023/09/08 02:33:04;;;;;;;;;;;;;;;30.61;30.39;98949.47;5094954;28;19966;-86
2023/09/08 02:35:35;;;;;;;;;;;;;;;30.83;29.91;98949.50;5094661;28;19943;-86
2023/09/08 02:38:01;;;;;;;;;;;;;;;31.12;29.58;98945.19;5095929;28;19920;-86
2023/09/08 02:40:27;;;;;;;;;;;;;;;31.30;29.17;98950.19;5091988;28;19994;-85
2023/09/08 02:42:53;;;;;;;;;;;;;;;31.09;29.39;98943.28;5090467;28;19920;-85
2023/09/08 02:45:19;;;;;;;;;;;;;;;31.15;29.08;98943.47;5095504;28;20301;-86
2023/09/08 02:47:45;;;;;;;;;;;;;;;31.32;28.74;98937.13;5092421;28;19927;-86
2023/09/08 02:50:11;;;;;;;;;;;;;;;31.45;28.53;98922.91;5096232;28;19920;-86
2023/09/08 02:52:37;;;;;;;;;;;;;;;31.45;28.46;98934.25;5095893;28;19957;-86
2023/09/08 02:55:03;;;;;;;;;;;;;;;31.59;28.02;98930.06;5095959;28;20003;-86
2023/09/08 02:57:29;;;;;;;;;;;;;;;31.56;28.61;98928.94;5105458;28;20371;-86
2023/09/08 02:59:56;;;;;;;;;;;;;;;31.62;28.55;98923.47;5094627;28;19920;-86
2023/09/08 03:02:23;;;;;;;;;;;;;;;31.56;28.61;98922.47;5099562;28;20004;-85
2023/09/08 03:04:50;;;;;;;;;;;;;;;31.46;29.17;98918.78;5091024;28;20601;-85
2023/09/08 03:07:16;;;;;;;;;;;;;;;31.61;28.56;98930.38;5104091;28;19916;-85
2023/09/08 03:09:41;;;;;;;;;;;;;;;31.45;28.77;98922.91;5095072;28;19950;-85
2023/09/08 03:12:08;;;;;;;;;;;;;;;31.35;28.33;98921.22;5094497;28;19949;-85
2023/09/08 03:14:34;;;;;;;;;;;;;;;31.29;28.36;98925.94;5095019;28;19916;-85
2023/09/08 03:17:00;;;;;;;;;;;;;;;31.27;28.21;98922.75;5084873;28;19928;-85
2023/09/08 03:19:26;;;;;;;;;;;;;;;31.42;28.09;98933.13;5094987;28;20010;-85
2023/09/08 03:21:52;;;;;;;;;;;;;;;31.50;27.47;98922.28;5094441;28;19931;-85
2023/09/08 03:24:18;;;;;;;;;;;;;;;31.55;27.77;98921.69;5095082;28;19920;-85
2023/09/08 03:26:44;;;;;;;;;;;;;;;31.59;27.35;98919.50;5094846;28;19920;-85
2023/09/08 03:29:10;;;;;;;;;;;;;;;31.59;26.82;98916.66;5095199;28;20311;-85
2023/09/08 03:31:36;;;;;;;;;;;;;;;31.42;27.26;98916.09;5095240;28;20376;-85
2023/09/08 03:34:02;;;;;;;;;;;;;;;31.27;27.81;98917.84;5089815;28;20322;-85
2023/09/08 03:36:28;;;;;;;;;;;;;;;30.62;28.45;98914.19;5094470;28;19962;-85
2023/09/08 03:38:54;;;;;;;;;;;;;;;30.39;28.84;98912.56;5092520;28;19966;-85
2023/09/08 03:41:20;;;;;;;;;;;;;;;30.34;29.32;98907.47;5090208;28;19920;-85
2023/09/08 03:43:49;;;;;;;;;;;;;;;30.72;28.71;98913.00;5096415;28;19982;-85
2023/09/08 03:46:15;;;;;;;;;;;;;;;30.81;28.75;98906.63;5094618;28;19955;-85
2023/09/08 03:48:41;;;;;;;;;;;;;;;30.83;28.29;98913.41;5093424;28;19967;-85
2023/09/08 03:51:07;;;;;;;;;;;;;;;30.87;27.84;98907.63;5093263;28;20010;-85
2023/09/08 03:53:33;;;;;;;;;;;;;;;30.90;28.47;98904.66;5094340;28;19924;-85
2023/09/08 03:55:59;;;;;;;;;;;;;;;30.80;28.88;98905.03;5093708;28;20350;-85
2023/09/08 03:58:25;;;;;;;;;;;;;;;30.36;29.12;98901.34;5071758;28;20310;-84
2023/09/08 04:00:51;;;;;;;;;;;;;;;30.37;29.15;98900.09;5090616;28;19920;-85
2023/09/08 04:03:17;;;;;;;;;;;;;;;30.10;30.44;98897.75;5090676;28;19926;-85
2023/09/08 04:05:43;;;;;;;;;;;;;;;30.22;29.95;98896.16;5093767;28;19972;-84
2023/09/08 04:08:09;;;;;;;;;;;;;;;30.13;29.91;98896.81;5093828;28;19920;-85
2023/09/08 04:10:35;;;;;;;;;;;;;;;30.16;29.50;98898.75;5093946;28;19920;-85
2023/09/08 04:13:01;;;;;;;;;;;;;;;30.28;30.03;98902.81;5093750;28;19920;-87
2023/09/08 04:15:27;;;;;;;;;;;;;;;30.54;29.67;98905.16;5094050;28;19989;-89
2023/09/08 04:17:53;;;;;;;;;;;;;;;30.58;29.50;98907.84;5087349;28;19968;-86
2023/09/08 04:20:19;;;;;;;;;;;;;;;30.37;30.53;98900.88;5090035;28;19920;-84
2023/09/08 04:22:46;;;;;;;;;;;;;;;30.20;30.56;98907.91;5092760;28;19965;-83
2023/09/08 04:25:12;;;;;;;;;;;;;;;30.10;30.81;98903.41;5089453;28;19924;-85
2023/09/08 04:27:39;;;;;;;;;;;;;;;30.09;30.87;98899.00;5093470;28;19938;-85
2023/09/08 04:30:06;;;;;;;;;;;;;;;30.39;30.33;98892.72;5089602;28;19924;-85
2023/09/08 04:32:32;;;;;;;;;;;;;;;30.44;29.90;98899.84;5065575;28;19924;-85
2023/09/08 04:34:58;;;;;;;;;;;;;;;30.47;29.88;98908.22;5093373;28;20330;-85
2023/09/08 04:37:24;;;;;;;;;;;;;;;30.77;29.02;98912.44;5092137;28;19920;-85
2023/09/08 04:39:50;;;;;;;;;;;;;;;31.05;28.71;98907.78;5092882;28;19920;-85
2023/09/08 04:42:17;;;;;;;;;;;;;;;31.18;29.12;98903.59;5089546;28;20233;-86
2023/09/08 04:44:43;;;;;;;;;;;;;;;30.99;29.34;98909.63;5084803;28;19970;-85
2023/09/08 04:47:09;;;;;;;;;;;;;;;30.99;29.44;98906.81;5089318;28;19967;-85
2023/09/08 04:49:35;;;;;;;;;;;;;;;31.16;29.43;98905.31;5075253;28;19969;-85
2023/09/08 04:52:01;;;;;;;;;;;;;;;31.40;28.73;98904.38;5091781;28;19916;-84
2023/09/08 04:54:27;;;;;;;;;;;;;;;31.64;28.79;98901.06;5061668;28;20441;-85
2023/09/08 04:56:54;;;;;;;;;;;;;;;31.76;28.59;98900.97;5089725;28;20007;-85
2023/09/08 04:59:20;;;;;;;;;;;;;;;31.81;28.74;98908.09;5085888;28;19963;-86
2023/09/08 05:01:46;;;;;;;;;;;;;;;31.63;29.12;98908.00;5092982;28;19919;-86
2023/09/08 05:04:12;;;;;;;;;;;;;;;31.63;29.44;98908.00;5092592;28;19943;-86
2023/09/08 05:06:38;;;;;;;;;;;;;;;31.74;29.52;98899.84;5093316;28;19942;-86
2023/09/08 05:09:04;;;;;;;;;;;;;;;31.99;29.10;98899.66;5093408;28;19938;-86
2023/09/08 05:11:30;;;;;;;;;;;;;;;32.26;28.83;98898.91;5093662;28;19927;-86
2023/09/08 05:13:57;;;;;;;;;;;;;;;32.49;28.12;98892.63;5093751;28;20014;-86
2023/09/08 05:16:36;;;;;;;;;;;;;;;32.64;28.71;98894.44;5093605;28;19924;-86
2023/09/08 05:19:03;;;;;;;;;;;;;;;32.21;28.74;98899.56;5093652;28;20081;-86
2023/09/08 05:21:30;;;;;;;;;;;;;;;31.79;30.11;98907.75;5084666;28;20391;-86
2023/09/08 05:23:56;;;;;;;;;;;;;;;31.64;30.24;98901.06;5089984;28;20337;-86
2023/09/08 05:26:22;;;;;;;;;;;;;;;31.77;30.35;98904.59;5093670;28;19930;-87
2023/09/08 05:28:48;;;;;;;;;;;;;;;31.52;30.70;98905.59;5093599;28;20010;-87
2023/09/08 05:31:14;;;;;;;;;;;;;;;31.46;30.76;98913.09;5088580;28;20008;-87
2023/09/08 05:33:40;;;;;;;;;;;;;;;30.84;31.39;98917.03;5093272;28;20434;-87
2023/09/08 05:36:06;;;;;;;;;;;;;;;30.30;32.63;98911.63;5092429;28;19923;-86
2023/09/08 05:38:32;;;;;;;;;;;;;;;30.92;32.38;98910.69;5092458;28;19993;-88
2023/09/08 05:40:58;;;;;;;;;;;;;;;30.91;31.77;98911.13;5083905;28;20393;-87
2023/09/08 05:43:25;;;;;;;;;;;;;;;30.93;31.54;98909.44;5097006;28;20006;-88
2023/09/08 05:45:51;;;;;;;;;;;;;;;30.81;32.93;98921.59;5097830;28;20034;-87
2023/09/08 05:48:17;;;;;;;;;;;;;;;31.09;32.07;98923.41;5078133;28;20431;-87
2023/09/08 05:50:43;;;;;;;;;;;;;;;30.88;32.16;98920.56;5091554;28;20002;-87
2023/09/08 05:53:09;;;;;;;;;;;;;;;30.87;32.90;98916.13;5092582;28;20019;-87
2023/09/08 05:55:35;;;;;;;;;;;;;;;30.95;32.83;98917.50;5093248;28;19919;-87
2023/09/08 05:58:01;;;;;;;;;;;;;;;31.10;33.59;98921.38;5077464;28;19920;-87
2023/09/08 06:00:27;;;;;;;;;;;;;;;31.17;31.69;98921.09;5097279;28;19921;-87
2023/09/08 06:02:53;;;;;;;;;;;;;;;31.55;32.24;98915.22;5080552;28;19924;-87
2023/09/08 06:05:19;;;;;;;;;;;;;;;31.30;32.42;98927.50;5076456;28;19938;-87
2023/09/08 06:07:45;;;;;;;;;;;;;;;31.75;31.86;98916.41;5096826;28;19924;-87
2023/09/08 06:10:11;;;;;;;;;;;;;;;31.89;31.61;98920.72;5082392;28;19973;-87
2023/09/08 06:12:37;;;;;;;;;;;;;;;31.80;32.64;98912.97;5076631;28;20443;-87
2023/09/08 06:15:04;;;;;;;;;;;;;;;31.77;30.95;98913.09;5087190;28;19959;-87
2023/09/08 06:17:30;;;;;;;;;;;;;;;31.83;31.90;98919.78;5096739;28;19955;-87
2023/09/08 06:19:56;;;;;;;;;;;;;;;31.91;31.51;98919.00;5091539;28;19920;-87
2023/09/08 06:22:22;;;;;;;;;;;;;;;31.62;33.14;98915.75;5090755;28;20383;-86
2023/09/08 06:24:48;;;;;;;;;;;;;;;31.51;32.11;98917.41;5084681;28;19927;-87
2023/09/08 06:27:14;;;;;;;;;;;;;;;32.29;31.57;98910.16;5084567;28;20364;-87
2023/09/08 06:29:43;;;;;;;;;;;;;;;32.74;31.21;98915.13;5097762;28;19995;-87
2023/09/08 06:32:10;;;;;;;;;;;;;;;33.05;30.98;98912.16;5090749;28;19920;-86
2023/09/08 06:34:36;;;;;;;;;;;;;;;33.10;31.41;98911.47;5094385;28;19920;-87
2023/09/08 06:37:02;;;;;;;;;;;;;;;32.40;31.04;98912.53;5093858;28;19924;-87
2023/09/08 06:39:28;;;;;;;;;;;;;;;31.99;32.05;98914.66;5092939;28;21261;-87
2023/09/08 06:41:54;;;;;;;;;;;;;;;32.25;32.19;98914.41;5093002;28;19932;-87
2023/09/08 06:44:20;;;;;;;;;;;;;;;33.05;31.07;98917.84;5094772;28;19934;-87
2023/09/08 06:46:47;;;;;;;;;;;;;;;31.86;32.11;98913.13;5075612;28;19939;-86
2023/09/08 06:49:13;;;;;;;;;;;;;;;32.02;32.42;98925.06;5094659;28;19931;-87
2023/09/08 06:51:39;;;;;;;;;;;;;;;32.73;32.10;98916.38;5098919;28;19924;-86
2023/09/08 06:54:05;;;;;;;;;;;;;;;31.78;32.26;98914.69;5094390;28;19926;-86
2023/09/08 06:56:31;;;;;;;;;;;;;;;32.03;31.56;98911.66;5098797;28;20363;-86
2023/09/08 06:59:00;;;;;;;;;;;;;;;32.59;31.24;98922.69;5100443;28;19987;-86
2023/09/08 07:01:26;;;;;;;;;;;;;;;32.94;30.79;98914.63;5076101;28;19928;-85
2023/09/08 07:03:52;;;;;;;;;;;;;;;32.97;31.86;98914.50;5090849;28;20381;-87
2023/09/08 07:06:18;;;;;;;;;;;;;;;33.23;31.01;98921.44;5094019;28;19955;-87
2023/09/08 07:08:44;;;;;;;;;;;;;;;33.56;30.10;98915.06;5093395;28;20417;-87
2023/09/08 07:11:10;;;;;;;;;;;;;;;33.86;30.65;98916.84;5094071;28;20395;-86
2023/09/08 07:13:36;;;;;;;;;;;;;;;33.89;29.71;98918.72;5091883;28;19927;-86
2023/09/08 07:16:02;;;;;;;;;;;;;;;33.64;29.33;98916.28;5093699;28;19924;-86
2023/09/08 07:18:28;;;;;;;;;;;;;;;33.17;30.43;98914.81;5089779;28;19927;-86
2023/09/08 07:20:54;;;;;;;;;;;;;;;33.56;30.30;98913.00;5091183;28;19932;-87
2023/09/08 07:23:20;;;;;;;;;;;;;;;34.38;29.26;98916.25;5094312;28;19990;-86
2023/09/08 07:25:47;;;;;;;;;;;;;;;32.30;30.83;98919.47;5110561;28;20378;-86
2023/09/08 07:28:14;;;;;;;;;;;;;;;32.03;32.89;98917.34;5096334;28;19916;-86
2023/09/08 07:30:40;;;;;;;;;;;;;;;33.08;30.14;98917.66;5106280;28;19927;-86
2023/09/08 07:33:06;;;;;;;;;;;;;;;33.99;29.18;98917.41;5095089;28;20329;-86
2023/09/08 07:35:32;;;;;;;;;;;;;;;34.67;28.46;98918.47;5091467;28;19920;-87
2023/09/08 07:37:58;;;;;;;;;;;;;;;35.13;27.98;98919.69;5096044;28;19920;-86
2023/09/08 07:40:24;;;;;;;;;;;;;;;34.68;27.97;98915.13;5096883;28;19972;-86
2023/09/08 07:42:50;;;;;;;;;;;;;;;35.07;27.24;98921.66;5094637;28;19924;-87
2023/09/08 07:45:16;;;;;;;;;;;;;;;35.02;28.29;98928.03;5093572;28;19920;-86
2023/09/08 07:47:43;;;;;;;;;;;;;;;35.03;28.40;98918.19;5093049;28;19928;-86
2023/09/08 07:50:17;;;;;;;;;;;;;;;35.57;27.15;98938.94;5092997;28;19982;-87
2023/09/08 07:52:43;;;;;;;;;;;;;;;35.84;28.39;98942.28;5087989;28;19931;-86
2023/09/08 07:55:09;;;;;;;;;;;;;;;35.46;27.80;98925.22;5092231;28;19955;-86
2023/09/08 07:57:35;;;;;;;;;;;;;;;35.49;26.96;98926.31;5092906;28;19920;-87
2023/09/08 08:00:02;;;;;;;;;;;;;;;35.32;27.20;98917.44;5092540;28;19978;-86
2023/09/08 08:02:28;;;;;;;;;;;;;;;35.03;28.17;98920.28;5092231;28;20896;-86
2023/09/08 08:04:54;;;;;;;;;;;;;;;35.27;26.42;98916.06;5092038;28;20500;-87
2023/09/08 08:07:20;;;;;;;;;;;;;;;34.55;29.09;98908.88;5092283;28;20470;-87
2023/09/08 08:09:46;;;;;;;;;;;;;;;35.25;26.83;98915.75;5092350;28;19969;-87
2023/09/08 08:12:13;;;;;;;;;;;;;;;34.68;28.49;98909.41;5075240;28;19935;-86
2023/09/08 08:14:39;;;;;;;;;;;;;;;34.95;27.96;98904.75;5091802;28;19924;-88
2023/09/08 08:17:05;;;;;;;;;;;;;;;34.56;28.02;98913.34;5092623;28;20360;-86
2023/09/08 08:19:31;;;;;;;;;;;;;;;34.58;28.29;98916.50;5091239;28;20361;-87
2023/09/08 08:21:58;;;;;;;;;;;;;;;34.64;28.30;98911.66;5093773;28;19920;-86
2023/09/08 08:24:24;;;;;;;;;;;;;;;34.08;27.71;98900.28;5088830;28;19920;-88
2023/09/08 08:26:51;;;;;;;;;;;;;;;34.92;27.95;98905.72;5073747;28;19932;-87
2023/09/08 08:29:17;;;;;;;;;;;;;;;35.14;27.48;98904.13;5089904;28;19997;-87
2023/09/08 08:31:43;;;;;;;;;;;;;;;35.62;25.74;98899.03;5091678;28;19974;-87
2023/09/08 08:34:09;;;;;;;;;;;;;;;35.87;26.47;98894.75;5092964;28;19989;-87
2023/09/08 08:36:35;;;;;;;;;;;;;;;35.71;26.11;98892.44;5092824;28;20001;-87
2023/09/08 08:39:02;;;;;;;;;;;;;;;35.60;26.68;98901.59;5091038;28;20013;-87
2023/09/08 08:41:29;;;;;;;;;;;;;;;36.35;25.74;98893.16;5092153;28;20367;-87
2023/09/08 08:43:55;;;;;;;;;;;;;;;36.93;25.11;98897.03;5091980;28;19963;-88
2023/09/08 08:46:21;;;;;;;;;;;;;;;37.08;25.53;98889.94;5089829;28;19920;-88
2023/09/08 08:48:48;;;;;;;;;;;;;;;36.05;26.14;98891.69;5089932;28;19920;-88
2023/09/08 08:51:16;;;;;;;;;;;;;;;35.72;26.20;98894.78;5068572;28;19920;-88
2023/09/08 08:53:42;;;;;;;;;;;;;;;35.51;28.77;98898.06;5095603;28;19928;-87
2023/09/08 08:56:09;;;;;;;;;;;;;;;34.80;27.21;98881.13;5092828;28;19970;-86
2023/09/08 08:58:37;;;;;;;;;;;;;;;35.39;28.10;98886.41;5092371;28;19920;-88
2023/09/08 09:01:04;;;;;;;;;;;;;;;36.01;26.74;98879.69;5074205;28;19975;-87
2023/09/08 09:03:31;;;;;;;;;;;;;;;35.89;27.40;98880.75;5072591;28;20010;-86
2023/09/08 09:05:57;;;;;;;;;;;;;;;35.57;26.82;98885.44;5091351;28;20018;-87
2023/09/08 09:08:23;;;;;;;;;;;;;;;35.66;28.32;98879.59;5091345;28;19920;-87
2023/09/08 09:10:50;;;;;;;;;;;;;;;36.21;27.46;98871.13;5093774;28;19931;-88
2023/09/08 09:13:16;;;;;;;;;;;;;;;36.63;26.95;98879.22;5091724;28;19974;-87
2023/09/08 09:15:44;;;;;;;;;;;;;;;37.48;26.59;98879.66;5091901;28;20429;-87
2023/09/08 09:18:10;;;;;;;;;;;;;;;38.01;25.50;98872.00;5092391;28;19959;-87
2023/09/08 09:20:36;;;;;;;;;;;;;;;37.99;24.54;98865.22;5094536;28;20493;-87
2023/09/08 09:23:03;;;;;;;;;;;;;;;37.66;26.41;98868.59;5089154;28;19924;-88
2023/09/08 09:25:30;;;;;;;;;;;;;;;36.28;27.34;98867.84;5089274;28;20375;-87
2023/09/08 09:28:00;;;;;;;;;;;;;;;36.23;26.65;98865.69;5090400;28;20011;-87
2023/09/08 09:30:26;;;;;;;;;;;;;;;35.25;28.74;98863.56;5073382;28;19919;-86
2023/09/08 09:33:03;;;;;;;;;;;;;;;35.70;29.77;98870.84;5087802;28;19920;-87
2023/09/08 09:35:42;;;;;;;;;;;;;;;36.25;28.45;98865.16;5107758;28;19920;-88
2023/09/08 09:38:08;;;;;;;;;;;;;;;37.01;27.08;98866.69;5104931;28;20334;-87
2023/09/08 09:40:34;;;;;;;;;;;;;;;37.88;26.17;98857.31;5113750;28;19957;-88
2023/09/08 09:43:00;;;;;;;;;;;;;;;38.12;25.47;98854.06;5105173;28;19924;-87
2023/09/08 09:45:26;;;;;;;;;;;;;;;38.60;25.49;98857.72;5117060;28;19919;-88
2023/09/08 09:47:52;;;;;;;;;;;;;;;38.41;25.49;98850.09;5088029;28;19925;-87
2023/09/08 09:50:48;;;;;;;;;;;;;;;38.48;25.78;98850.38;5092345;28;19920;-87
2023/09/08 09:53:15;;;;;;;;;;;;;;;38.09;26.74;98849.34;5096994;28;19927;-88
2023/09/08 09:55:43;;;;;;;;;;;;;;;37.55;26.87;98851.31;5092729;28;19924;-86
2023/09/08 09:58:14;;;;;;;;;;;;;;;37.39;26.67;98849.88;5097137;28;20370;-87
2023/09/08 10:00:47;;;;;;;;;;;;;;;38.19;26.74;98847.84;5095084;28;19920;-87
2023/09/08 10:03:13;;;;;;;;;;;;;;;38.83;25.55;98855.75;5094814;28;20018;-87
2023/09/08 10:05:39;;;;;;;;;;;;;;;39.19;24.31;98843.28;5096860;28;19916;-87
2023/09/08 10:08:06;;;;;;;;;;;;;;;38.91;25.23;98847.41;5095996;28;19967;-88
2023/09/08 10:10:32;;;;;;;;;;;;;;;38.14;26.13;98844.97;5095280;28;20322;-87
2023/09/08 10:13:02;;;;;;;;;;;;;;;38.19;25.45;98844.19;5091836;28;20367;-87
2023/09/08 10:15:28;;;;;;;;;;;;;;;38.74;26.21;98847.38;5095656;28;19951;-87
2023/09/08 10:17:56;;;;;;;;;;;;;;;39.22;25.28;98839.38;5095572;28;20431;-87
2023/09/08 10:20:26;;;;;;;;;;;;;;;38.69;25.22;98839.50;5094891;28;19928;-86
2023/09/08 10:22:56;;;;;;;;;;;;;;;36.59;27.73;98847.19;5094342;28;19951;-86
2023/09/08 10:25:24;;;;;;;;;;;;;;;37.09;24.95;98837.06;5093322;28;19931;-86
2023/09/08 10:27:51;;;;;;;;;;;;;;;35.96;29.38;98838.25;5095108;28;19920;-87
2023/09/08 10:30:20;;;;;;;;;;;;;;;34.75;29.63;98840.56;5093100;28;20383;-86
2023/09/08 10:32:49;;;;;;;;;;;;;;;36.25;27.44;98837.34;5095077;28;20058;-87
2023/09/08 10:35:17;;;;;;;;;;;;;;;37.41;27.11;98832.19;5095195;28;19924;-87
2023/09/08 10:37:43;;;;;;;;;;;;;;;37.44;26.50;98839.75;5077109;28;20341;-87
2023/09/08 10:40:18;;;;;;;;;;;;;;;38.53;25.62;98837.34;5094413;28;19924;-88
2023/09/08 10:42:44;;;;;;;;;;;;;;;38.45;24.39;98830.53;5092015;28;19963;-87
2023/09/08 10:45:17;;;;;;;;;;;;;;;37.53;25.27;98828.09;5095501;28;19951;-86
2023/09/08 10:47:43;;;;;;;;;;;;;;;35.15;30.27;98827.84;5092394;28;19924;-87
2023/09/08 10:50:15;;;;;;;;;;;;;;;35.51;29.29;98823.78;5096524;28;19927;-86
2023/09/08 10:52:41;;;;;;;;;;;;;;;36.93;26.10;98819.72;5092622;28;19928;-86
2023/09/08 10:55:07;;;;;;;;;;;;;;;37.40;28.77;98819.16;5094982;28;20397;-87
2023/09/08 10:57:33;;;;;;;;;;;;;;;37.68;25.86;98810.75;5078105;28;19951;-86
2023/09/08 11:00:11;;;;;;;;;;;;;;;37.29;26.39;98814.09;5094346;28;20535;-87
2023/09/08 11:02:54;;;;;;;;;;;;;;;37.38;25.88;98819.66;5093805;28;19920;-86
2023/09/08 11:05:21;;;;;;;;;;;;;;;37.30;26.05;98817.72;5093724;28;20029;-86
2023/09/08 11:07:49;;;;;;;;;;;;;;;38.14;24.34;98813.41;5094132;28;19927;-86
2023/09/08 11:10:15;;;;;;;;;;;;;;;38.09;24.26;98806.31;5096235;28;20283;-86
2023/09/08 11:12:41;;;;;;;;;;;;;;;38.11;24.95;98811.56;5093430;28;19924;-87
2023/09/08 11:15:08;;;;;;;;;;;;;;;39.10;25.18;98808.25;5096652;28;20003;-86
2023/09/08 11:17:35;;;;;;;;;;;;;;;38.14;25.16;98814.19;5093479;28;19928;-87
2023/09/08 11:20:08;;;;;;;;;;;;;;;36.89;26.45;98816.28;5092353;28;20742;-87
2023/09/08 11:22:34;;;;;;;;;;;;;;;37.77;26.89;98807.69;5091299;28;19934;-87
2023/09/08 11:25:04;;;;;;;;;;;;;;;38.69;24.49;98810.78;5094767;28;19974;-86
2023/09/08 11:27:30;;;;;;;;;;;;;;;38.98;23.90;98804.59;5094595;28;20298;-87
2023/09/08 11:29:57;;;;;;;;;;;;;;;38.10;25.85;98819.38;5094971;28;20014;-86
2023/09/08 11:32:23;;;;;;;;;;;;;;;37.92;25.96;98806.25;5093939;28;19939;-87
2023/09/08 11:34:49;;;;;;;;;;;;;;;38.72;24.06;98812.63;5095864;28;19927;-87
2023/09/08 11:37:17;;;;;;;;;;;;;;;38.47;25.66;98817.22;5095286;28;19966;-84
2023/09/08 11:39:44;;;;;;;;;;;;;;;38.10;25.40;98809.97;5093489;28;19924;-84
2023/09/08 11:42:14;;;;;;;;;;;;;;;37.24;25.65;98808.31;5074907;28;19963;-84
2023/09/08 11:44:41;;;;;;;;;;;;;;;36.73;26.66;98809.09;5094421;28;19967;-84
2023/09/08 11:47:09;;;;;;;;;;;;;;;37.23;25.64;98813.25;5092414;28;19920;-84
2023/09/08 11:49:35;;;;;;;;;;;;;;;38.24;27.04;98801.19;5092930;28;19974;-86
2023/09/08 11:52:02;;;;;;;;;;;;;;;38.86;26.35;98807.97;5094254;28;20281;-85
2023/09/08 11:54:28;;;;;;;;;;;;;;;38.78;24.17;98806.91;5089520;28;19978;-84
2023/09/08 11:56:55;;;;;;;;;;;;;;;38.84;24.22;98793.34;5092874;28;20023;-84
2023/09/08 11:59:21;;;;;;;;;;;;;;;39.17;23.37;98788.44;5073231;28;19920;-85
2023/09/08 12:01:47;;;;;;;;;;;;;;;38.26;26.00;98795.72;5091495;28;20014;-85
2023/09/08 12:04:17;;;;;;;;;;;;;;;38.30;25.02;98793.41;5073933;28;19920;-87
2023/09/08 12:06:43;;;;;;;;;;;;;;;38.01;25.93;98790.91;5092714;28;19924;-87
2023/09/08 12:09:09;;;;;;;;;;;;;;;38.92;24.43;98794.41;5093189;28;19926;-87
2023/09/08 12:11:37;;;;;;;;;;;;;;;38.82;24.23;98790.19;5091257;28;19931;-87
2023/09/08 12:14:06;;;;;;;;;;;;;;;38.22;24.88;98788.66;5091391;28;19924;-87
2023/09/08 12:16:32;;;;;;;;;;;;;;;38.39;24.77;98786.69;5093164;28;20011;-87
2023/09/08 12:18:58;;;;;;;;;;;;;;;37.61;25.63;98788.28;5091740;28;19928;-87
2023/09/08 12:21:24;;;;;;;;;;;;;;;37.54;25.42;98783.81;5091791;28;19932;-86
2023/09/08 12:23:51;;;;;;;;;;;;;;;37.00;25.47;98782.06;5089891;28;19935;-87
2023/09/08 12:26:18;;;;;;;;;;;;;;;37.73;25.60;98775.59;5090386;28;19920;-87
2023/09/08 12:28:45;;;;;;;;;;;;;;;37.06;26.79;98772.22;5091082;28;19920;-86
2023/09/08 12:31:15;;;;;;;;;;;;;;;38.08;26.03;98773.22;5092527;28;19920;-87
2023/09/08 12:33:44;;;;;;;;;;;;;;;39.24;23.41;98776.44;5092874;28;19966;-87
2023/09/08 12:36:14;;;;;;;;;;;;;;;38.78;23.54;98766.69;5092039;28;20402;-88
2023/09/08 12:38:41;;;;;;;;;;;;;;;38.65;23.71;98767.94;5092720;28;19927;-87
2023/09/08 12:41:07;;;;;;;;;;;;;;;38.99;23.24;98765.94;5093716;28;20022;-88
2023/09/08 12:43:33;;;;;;;;;;;;;;;39.71;23.67;98750.78;5074985;28;19990;-85
2023/09/08 12:45:59;;;;;;;;;;;;;;;40.36;23.97;98760.50;5087609;28;19920;-86